Time;durP1;ratioP1;P1;durP2;ratioP2;P2;SDS_P1;SDS_P2;PMS_P1;PMS_P2;Temp;Humidity;BMP_temperature;BMP_pressure;BME280_temperature;BME280_humidity;BME280_pressure;Samples;Min_cycle;Max_cycle;Signal;HPM_P1;HPM_P2
2021/05/13 00:01:33;;;;;;;4.63;1.05;;;17.30;44.80;;;;;;6099961;29;20043;-79
2021/05/13 00:04:34;;;;;;;2.28;0.93;;;17.30;45.00;;;;;;6119604;29;20035;-79
2021/05/13 00:07:35;;;;;;;1.48;0.70;;;17.40;45.20;;;;;;6100047;29;20091;-79
2021/05/13 00:10:36;;;;;;;2.08;1.10;;;17.20;45.50;;;;;;6116818;29;20020;-79
2021/05/13 00:13:40;;;;;;;1.70;0.60;;;17.20;45.80;;;;;;6118493;29;20051;-79
2021/05/13 00:16:41;;;;;;;2.75;1.05;;;17.20;46.20;;;;;;6120211;29;20367;-79
2021/05/13 00:19:42;;;;;;;2.55;0.88;;;17.10;46.50;;;;;;6120938;29;20067;-79
2021/05/13 00:22:43;;;;;;;0.82;0.63;;;17.10;46.90;;;;;;6099672;29;20115;-78
2021/05/13 00:25:47;;;;;;;8.82;0.60;;;17.00;47.10;;;;;;6102031;29;20028;-79
2021/05/13 00:28:48;;;;;;;4.18;0.88;;;16.90;47.30;;;;;;6094362;29;20126;-79
2021/05/13 00:31:49;;;;;;;1.65;0.80;;;16.90;47.50;;;;;;6114489;29;20407;-79
2021/05/13 00:34:50;;;;;;;2.05;0.68;;;16.80;47.40;;;;;;6093322;29;20051;-78
2021/05/13 00:37:51;;;;;;;0.73;0.60;;;16.80;48.10;;;;;;6099811;29;20036;-78
2021/05/13 00:40:53;;;;;;;2.58;0.77;;;16.80;47.60;;;;;;6108837;29;20099;-80
2021/05/13 00:43:56;;;;;;;3.10;0.80;;;16.80;47.70;;;;;;6102734;29;20055;-78
2021/05/13 00:46:57;;;;;;;2.35;0.80;;;16.70;47.90;;;;;;6092606;29;20024;-79
2021/05/13 00:49:58;;;;;;;1.42;0.90;;;16.80;48.00;;;;;;6102191;29;20363;-80
2021/05/13 00:53:09;;;;;;;2.13;0.77;;;16.80;48.10;;;;;;6114938;29;20036;-80
2021/05/13 00:56:10;;;;;;;1.40;0.70;;;16.80;48.20;;;;;;6101156;29;20024;-78
2021/05/13 00:59:12;;;;;;;3.28;0.80;;;16.80;48.20;;;;;;6122608;29;20032;-79
2021/05/13 01:02:14;;;;;;;5.57;0.68;;;16.90;48.10;;;;;;6102031;29;20036;-79
2021/05/13 01:05:15;;;;;;;2.83;0.90;;;16.90;47.80;;;;;;6120752;29;20038;-79
2021/05/13 01:08:16;;;;;;;2.42;0.60;;;16.90;47.80;;;;;;6103534;29;20113;-78
2021/05/13 01:11:17;;;;;;;1.08;0.60;;;17.00;47.70;;;;;;6120780;29;20024;-78
2021/05/13 01:17:53;;;;;;;1.25;0.75;;;17.00;47.40;;;;;;6122651;29;20062;-79
2021/05/13 01:20:54;;;;;;;1.33;0.73;;;17.10;47.40;;;;;;6122197;29;20039;-79
2021/05/13 01:23:55;;;;;;;2.83;0.80;;;17.10;47.80;;;;;;6116215;29;20044;-79
2021/05/13 01:26:57;;;;;;;1.20;0.68;;;17.10;47.90;;;;;;6107261;29;20063;-80
2021/05/13 01:29:59;;;;;;;0.93;0.60;;;17.10;47.90;;;;;;6090157;29;20028;-80
2021/05/13 01:33:01;;;;;;;2.88;0.82;;;17.20;47.90;;;;;;6099889;29;20364;-78
2021/05/13 01:36:03;;;;;;;3.42;0.57;;;17.20;47.70;;;;;;6076260;29;20116;-79
2021/05/13 01:39:07;;;;;;;1.50;0.73;;;17.20;47.70;;;;;;6045070;29;20396;-80
2021/05/13 01:42:08;;;;;;;4.72;0.55;;;17.30;47.70;;;;;;6076579;29;20465;-79
2021/05/13 01:45:09;;;;;;;6.53;0.68;;;17.30;48.00;;;;;;6062856;29;20053;-80
2021/05/13 01:48:11;;;;;;;1.42;0.65;;;17.20;48.10;;;;;;6055825;29;20496;-80
2021/05/13 01:51:13;;;;;;;4.38;1.08;;;17.20;48.40;;;;;;6075260;29;20115;-79
2021/05/13 01:54:15;;;;;;;1.15;0.70;;;17.30;48.80;;;;;;6073735;29;20358;-80
2021/05/13 01:57:16;;;;;;;0.85;0.50;;;17.20;49.20;;;;;;6085248;29;20167;-80
2021/05/13 02:00:18;;;;;;;2.03;0.88;;;17.20;49.30;;;;;;6075743;29;20036;-79
2021/05/13 02:03:19;;;;;;;2.20;0.70;;;17.20;50.10;;;;;;6058522;29;20372;-82
2021/05/13 02:06:20;;;;;;;0.95;0.60;;;17.10;50.50;;;;;;6076357;29;20052;-80
2021/05/13 02:09:22;;;;;;;1.27;0.60;;;17.10;50.80;;;;;;6061087;29;20036;-80
2021/05/13 02:12:23;;;;;;;0.73;0.50;;;17.10;51.00;;;;;;6075844;29;20341;-80
2021/05/13 02:15:24;;;;;;;0.60;0.35;;;17.10;51.00;;;;;;6061889;29;20044;-80
2021/05/13 02:18:25;;;;;;;1.17;0.30;;;17.10;51.10;;;;;;6061997;29;20464;-79
2021/05/13 02:21:26;;;;;;;0.10;0.10;;;17.00;51.30;;;;;;6061398;29;20037;-79
2021/05/13 02:24:27;;;;;;;0.30;0.25;;;17.00;51.60;;;;;;6078927;29;20108;-80
2021/05/13 02:27:28;;;;;;;0.55;0.10;;;17.00;51.70;;;;;;6056440;29;20029;-82
2021/05/13 02:30:36;;;;;;;6.22;0.20;;;16.90;51.90;;;;;;6075912;29;20033;-79
2021/05/13 02:33:37;;;;;;;2.20;0.15;;;16.90;52.30;;;;;;6075988;29;20036;-80
2021/05/13 02:36:38;;;;;;;0.28;0.03;;;16.90;52.10;;;;;;6078139;29;20053;-79
2021/05/13 02:39:40;;;;;;;0.43;0.20;;;16.90;52.40;;;;;;6061394;29;20037;-80
2021/05/13 02:42:42;;;;;;;0.05;0.05;;;16.90;52.80;;;;;;6057084;29;20072;-79
2021/05/13 02:45:43;;;;;;;1.38;0.20;;;16.80;53.30;;;;;;6089155;29;20064;-80
2021/05/13 02:48:44;;;;;;;0.10;0.10;;;16.70;53.40;;;;;;6066980;29;20024;-78
2021/05/13 02:51:45;;;;;;;0.30;0.20;;;16.60;54.00;;;;;;6059531;29;20029;-79
2021/05/13 02:54:46;;;;;;;0.95;0.25;;;16.50;55.10;;;;;;6091114;29;20029;-78
2021/05/13 02:57:49;;;;;;;0.43;0.30;;;16.30;56.20;;;;;;6059588;29;20112;-79
2021/05/13 03:03:54;;;;;;;0.35;0.17;;;15.90;58.20;;;;;;6055863;29;20029;-79
2021/05/13 03:06:55;;;;;;;0.52;0.30;;;15.70;59.40;;;;;;6060053;29;20040;-78
2021/05/13 03:09:58;;;;;;;0.17;0.17;;;15.50;60.10;;;;;;6090236;29;20184;-79
2021/05/13 03:13:00;;;;;;;0.05;0.00;;;15.40;61.80;;;;;;6072446;29;20036;-79
2021/05/13 03:16:01;;;;;;;0.17;0.13;;;15.10;60.40;;;;;;6058458;29;20043;-80
2021/05/13 03:19:05;;;;;;;3.30;0.20;;;14.80;57.90;;;;;;6089077;29;20431;-79
2021/05/13 03:22:10;;;;;;;0.60;0.17;;;14.50;57.20;;;;;;6073838;29;20048;-79
2021/05/13 03:25:16;;;;;;;0.00;0.00;;;14.20;57.70;;;;;;6072366;29;20378;-79
2021/05/13 03:28:17;;;;;;;0.68;0.25;;;14.00;58.70;;;;;;6060708;29;20051;-80
2021/05/13 03:31:18;;;;;;;0.70;0.10;;;13.70;60.00;;;;;;6072800;29;20029;-78
2021/05/13 03:34:19;;;;;;;0.40;0.30;;;13.50;61.30;;;;;;6052580;29;20067;-81
2021/05/13 03:37:25;;;;;;;0.60;0.20;;;13.40;61.90;;;;;;6090110;29;20039;-77
2021/05/13 03:40:39;;;;;;;1.23;0.60;;;13.30;63.60;;;;;;6106755;29;20032;-81
2021/05/13 03:43:40;;;;;;;0.88;0.20;;;13.10;63.70;;;;;;6086237;29;20495;-79
2021/05/13 03:46:41;;;;;;;11.73;1.15;;;13.20;64.60;;;;;;6106126;29;20024;-78
2021/05/13 03:49:42;;;;;;;11.43;1.25;;;13.10;65.10;;;;;;6106515;29;20107;-79
2021/05/13 03:52:44;;;;;;;3.20;0.95;;;13.00;65.00;;;;;;6105505;29;20099;-79
2021/05/13 03:55:49;;;;;;;0.17;0.17;;;13.00;64.30;;;;;;6106166;29;20040;-78
2021/05/13 03:58:58;;;;;;;0.30;0.10;;;13.00;64.50;;;;;;6105041;29;20340;-80
2021/05/13 04:05:06;;;;;;;2.13;0.10;;;13.00;62.80;;;;;;6096192;29;20043;-80
2021/05/13 04:08:09;;;;;;;0.22;0.20;;;13.00;60.60;;;;;;6105877;29;20400;-80
2021/05/13 04:11:10;;;;;;;0.43;0.20;;;13.00;59.80;;;;;;6089245;29;20028;-79
2021/05/13 04:14:12;;;;;;;0.35;0.30;;;13.00;58.80;;;;;;6106106;29;20024;-79
2021/05/13 04:17:13;;;;;;;2.42;0.30;;;13.10;57.80;;;;;;6104775;29;20043;-79
2021/05/13 04:20:17;;;;;;;2.72;0.40;;;13.10;57.10;;;;;;6105045;29;20064;-79
2021/05/13 04:23:18;;;;;;;0.10;0.08;;;13.20;56.90;;;;;;6105843;29;20032;-80
2021/05/13 04:26:19;;;;;;;1.42;0.28;;;13.20;56.10;;;;;;6104679;29;20048;-80
2021/05/13 04:29:20;;;;;;;1.85;0.10;;;13.30;55.00;;;;;;6103857;29;20028;-80
2021/05/13 04:32:21;;;;;;;1.75;0.40;;;13.40;54.40;;;;;;6087718;29;20031;-80
2021/05/13 04:35:26;;;;;;;1.00;0.20;;;13.40;53.80;;;;;;6089483;29;20424;-80
2021/05/13 04:38:30;;;;;;;0.65;0.20;;;13.50;53.50;;;;;;6105421;29;20456;-79
2021/05/13 04:41:33;;;;;;;0.47;0.20;;;13.60;52.70;;;;;;6107693;29;20079;-78
2021/05/13 04:44:40;;;;;;;0.10;0.10;;;13.70;52.70;;;;;;6105328;29;20064;-78
2021/05/13 04:50:43;;;;;;;0.75;0.22;;;13.80;53.40;;;;;;6090015;29;20467;-80
2021/05/13 04:53:46;;;;;;;0.25;0.20;;;13.90;53.80;;;;;;6105728;29;20024;-79
2021/05/13 04:56:47;;;;;;;2.08;0.52;;;13.90;54.40;;;;;;6087896;29;20052;-80
2021/05/13 04:59:48;;;;;;;0.22;0.20;;;13.90;53.90;;;;;;6106084;29;20028;-81
2021/05/13 05:02:49;;;;;;;0.00;0.00;;;14.00;53.90;;;;;;6108254;29;20436;-80
2021/05/13 05:05:51;;;;;;;0.88;0.30;;;14.00;53.90;;;;;;6108693;29;20028;-81
2021/05/13 05:08:52;;;;;;;2.47;0.35;;;14.10;53.90;;;;;;6105635;29;20397;-79
2021/05/13 05:11:54;;;;;;;0.35;0.22;;;14.10;53.80;;;;;;6092428;29;20035;-79
2021/05/13 05:14:57;;;;;;;0.90;0.30;;;14.20;53.70;;;;;;6102369;29;20036;-80
2021/05/13 05:17:58;;;;;;;1.80;0.40;;;14.20;53.40;;;;;;6106829;29;20032;-80
2021/05/13 05:21:00;;;;;;;1.60;0.22;;;14.30;53.10;;;;;;6107471;29;20070;-80
2021/05/13 05:24:01;;;;;;;0.20;0.20;;;14.30;53.00;;;;;;6108178;29;20036;-80
2021/05/13 05:27:02;;;;;;;1.27;0.32;;;14.30;52.90;;;;;;6082332;29;20034;-79
2021/05/13 05:30:05;;;;;;;0.10;0.10;;;14.30;52.60;;;;;;6090121;29;20059;-78
2021/05/13 05:33:08;;;;;;;0.50;0.30;;;14.30;52.10;;;;;;6105314;29;20030;-79
2021/05/13 05:36:09;;;;;;;0.13;0.10;;;14.30;52.00;;;;;;6078977;29;20485;-79
2021/05/13 05:39:10;;;;;;;0.55;0.20;;;14.20;52.00;;;;;;6057163;29;20170;-79
2021/05/13 05:42:11;;;;;;;2.53;0.63;;;14.30;52.00;;;;;;6062010;29;20361;-79
2021/05/13 05:45:13;;;;;;;0.95;0.30;;;14.30;52.00;;;;;;6059953;29;20021;-79
2021/05/13 05:48:14;;;;;;;0.45;0.20;;;14.30;52.70;;;;;;6060240;29;20037;-79
2021/05/13 05:51:16;;;;;;;0.20;0.20;;;14.40;52.00;;;;;;6058394;29;20373;-79
2021/05/13 05:54:17;;;;;;;0.50;0.30;;;14.40;52.00;;;;;;6068282;29;20052;-80
2021/05/13 05:57:18;;;;;;;0.70;0.22;;;14.50;51.90;;;;;;6061822;29;20033;-79
2021/05/13 06:00:20;;;;;;;0.25;0.10;;;14.60;51.80;;;;;;6076490;29;20060;-80
2021/05/13 06:03:21;;;;;;;0.20;0.13;;;14.70;51.50;;;;;;6076015;29;20033;-80
2021/05/13 06:06:22;;;;;;;2.13;0.60;;;14.70;51.20;;;;;;6060686;29;20025;-79
2021/05/13 06:09:23;;;;;;;4.10;0.57;;;14.70;51.30;;;;;;6057995;29;20051;-80
2021/05/13 06:12:24;;;;;;;0.20;0.20;;;14.80;51.40;;;;;;6052866;29;20169;-79
2021/05/13 06:15:25;;;;;;;0.60;0.30;;;14.90;51.20;;;;;;6056078;29;20155;-79
2021/05/13 06:18:26;;;;;;;2.35;0.60;;;15.00;51.10;;;;;;6058224;29;20033;-80
2021/05/13 06:21:28;;;;;;;0.82;0.40;;;15.10;50.80;;;;;;6075833;29;20048;-80
2021/05/13 06:24:29;;;;;;;2.55;0.50;;;15.40;50.60;;;;;;6074195;29;20376;-80
2021/05/13 06:27:30;;;;;;;0.68;0.40;;;15.30;50.30;;;;;;6040725;29;20039;-80
2021/05/13 06:30:31;;;;;;;0.32;0.20;;;15.40;50.30;;;;;;6061429;29;20420;-80
2021/05/13 06:33:32;;;;;;;2.85;0.50;;;15.50;50.30;;;;;;6075642;29;20048;-80
2021/05/13 06:36:33;;;;;;;0.10;0.10;;;15.60;50.10;;;;;;6095498;29;20048;-80
2021/05/13 06:39:35;;;;;;;2.28;0.30;;;15.70;49.90;;;;;;6083392;29;20416;-80
2021/05/13 06:42:36;;;;;;;1.38;0.40;;;15.80;49.60;;;;;;6098647;29;20043;-80
2021/05/13 06:45:37;;;;;;;0.32;0.32;;;15.80;49.30;;;;;;6079328;29;20052;-80
2021/05/13 06:48:41;;;;;;;0.60;0.30;;;15.90;49.10;;;;;;6093623;29;20024;-79
2021/05/13 06:51:42;;;;;;;1.63;0.40;;;16.00;48.90;;;;;;6098600;29;20453;-80
2021/05/13 06:54:44;;;;;;;0.70;0.50;;;16.10;48.80;;;;;;6083624;29;20032;-80
2021/05/13 06:57:46;;;;;;;1.58;0.65;;;16.20;48.70;;;;;;6093453;29;20033;-80
2021/05/13 07:00:48;;;;;;;2.25;0.60;;;16.30;48.70;;;;;;6081251;29;20024;-80
2021/05/13 07:03:49;;;;;;;2.35;1.10;;;16.40;48.50;;;;;;6090618;29;20052;-80
2021/05/13 07:06:50;;;;;;;0.40;0.40;;;16.50;48.20;;;;;;6083714;29;20029;-80
2021/05/13 07:09:51;;;;;;;0.73;0.40;;;16.50;47.90;;;;;;6095783;29;20536;-81
2021/05/13 07:12:53;;;;;;;4.75;0.40;;;16.50;48.00;;;;;;6079900;29;20040;-81
2021/05/13 07:15:55;;;;;;;0.22;0.22;;;16.60;48.10;;;;;;6091386;29;20376;-79
2021/05/13 07:18:58;;;;;;;1.05;0.30;;;16.70;47.90;;;;;;6081663;29;20131;-81
2021/05/13 07:22:01;;;;;;;1.02;0.30;;;16.70;47.70;;;;;;6082528;29;20043;-78
2021/05/13 07:25:06;;;;;;;1.83;0.60;;;16.80;47.60;;;;;;6098933;29;20135;-82
2021/05/13 07:28:08;;;;;;;0.77;0.40;;;16.90;47.40;;;;;;6081063;29;20033;-81
2021/05/13 07:31:09;;;;;;;0.98;0.45;;;17.00;47.20;;;;;;6082082;29;20439;-79
2021/05/13 07:34:10;;;;;;;1.77;0.25;;;17.10;47.20;;;;;;6107201;29;20043;-80
2021/05/13 07:37:12;;;;;;;2.05;0.50;;;17.30;47.20;;;;;;6103284;29;20091;-79
2021/05/13 07:40:15;;;;;;;0.63;0.40;;;17.40;47.10;;;;;;6114450;29;20107;-78
2021/05/13 07:43:18;;;;;;;0.22;0.20;;;17.40;47.10;;;;;;6104783;29;20032;-79
2021/05/13 07:46:20;;;;;;;1.77;0.60;;;17.50;47.00;;;;;;6085706;29;20048;-78
2021/05/13 07:49:23;;;;;;;0.82;0.50;;;17.50;47.00;;;;;;6088834;29;20032;-79
2021/05/13 07:52:24;;;;;;;0.95;0.43;;;17.60;47.00;;;;;;6115566;29;20067;-79
2021/05/13 07:55:25;;;;;;;1.35;0.30;;;17.60;46.90;;;;;;6122120;29;20028;-78
2021/05/13 07:58:26;;;;;;;1.20;0.45;;;17.60;46.80;;;;;;6071470;29;20167;-78
2021/05/13 08:01:27;;;;;;;0.32;0.20;;;17.60;46.70;;;;;;6089604;29;20032;-78
2021/05/13 08:04:29;;;;;;;0.85;0.57;;;17.60;46.70;;;;;;6105311;29;20044;-78
2021/05/13 08:07:30;;;;;;;0.38;0.38;;;17.60;46.50;;;;;;6103157;29;20056;-77
2021/05/13 08:10:31;;;;;;;1.40;0.50;;;17.70;46.70;;;;;;6102759;29;20092;-79
2021/05/13 08:13:32;;;;;;;4.25;0.80;;;17.70;46.50;;;;;;6104955;29;20062;-80
2021/05/13 08:16:35;;;;;;;1.52;0.70;;;17.60;46.40;;;;;;6074433;29;20035;-81
2021/05/13 08:19:37;;;;;;;0.52;0.40;;;17.60;46.30;;;;;;6089976;29;20032;-82
2021/05/13 08:22:39;;;;;;;3.35;0.50;;;17.60;46.40;;;;;;6102871;29;20420;-83
2021/05/13 08:25:41;;;;;;;1.45;0.20;;;17.60;46.20;;;;;;6097184;29;20488;-85
2021/05/13 08:28:43;;;;;;;2.20;1.13;;;17.60;46.30;;;;;;6088964;29;20036;-83
2021/05/13 08:31:44;;;;;;;2.40;0.65;;;17.60;46.60;;;;;;6091787;29;20039;-82
2021/05/13 08:34:45;;;;;;;1.75;0.47;;;17.70;47.40;;;;;;6074168;29;20052;-84
2021/05/13 08:37:46;;;;;;;4.30;0.50;;;17.70;46.90;;;;;;6101636;29;20028;-83
2021/05/13 08:40:48;;;;;;;1.45;0.47;;;17.80;47.00;;;;;;6106977;29;20035;-83
2021/05/13 08:43:51;;;;;;;1.50;0.52;;;17.90;47.00;;;;;;6105989;29;20400;-82
2021/05/13 08:46:52;;;;;;;2.47;0.50;;;18.00;46.80;;;;;;6108458;29;20024;-83
2021/05/13 08:49:56;;;;;;;1.58;0.35;;;18.20;46.50;;;;;;6108281;29;20031;-83
2021/05/13 08:52:57;;;;;;;1.17;0.80;;;18.30;46.40;;;;;;6109517;29;20032;-84
2021/05/13 08:56:01;;;;;;;0.40;0.30;;;18.40;46.20;;;;;;6107388;29;20062;-82
2021/05/13 08:59:04;;;;;;;1.23;0.70;;;18.60;46.20;;;;;;6108630;29;20126;-88
2021/05/13 09:02:09;;;;;;;0.40;0.30;;;18.80;45.80;;;;;;6112327;29;20040;-83
2021/05/13 09:05:11;;;;;;;5.70;0.40;;;18.90;45.60;;;;;;6115345;29;20036;-85
2021/05/13 09:08:22;;;;;;;0.30;0.28;;;19.00;45.40;;;;;;6106758;29;20464;-84
2021/05/13 09:11:23;;;;;;;1.95;0.52;;;19.20;45.20;;;;;;6096461;29;20498;-84
2021/05/13 09:14:30;;;;;;;1.38;0.47;;;19.20;45.00;;;;;;6091182;29;20044;-78
2021/05/13 09:17:32;;;;;;;1.58;0.45;;;19.40;44.90;;;;;;6086041;29;20078;-79
2021/05/13 09:20:38;;;;;;;1.00;0.40;;;19.40;44.50;;;;;;6108015;29;20429;-78
2021/05/13 09:23:42;;;;;;;2.55;0.32;;;19.70;44.20;;;;;;6103091;29;20056;-80
2021/05/13 09:26:43;;;;;;;1.75;0.40;;;20.00;43.60;;;;;;6111050;29;20052;-80
2021/05/13 09:29:45;;;;;;;2.70;0.63;;;20.00;42.90;;;;;;6100364;29;20459;-80
2021/05/13 09:32:58;;;;;;;3.42;0.32;;;20.10;42.70;;;;;;6101437;29;20067;-80
2021/05/13 09:36:18;;;;;;;2.55;1.40;;;20.20;42.50;;;;;;6101761;29;20126;-81
2021/05/13 09:39:24;;;;;;;0.77;0.47;;;20.20;42.20;;;;;;6103277;29;20035;-79
2021/05/13 09:42:26;;;;;;;1.80;0.50;;;20.20;41.90;;;;;;6108417;29;20111;-80
2021/05/13 09:45:47;;;;;;;0.93;0.73;;;20.20;41.50;;;;;;6092504;29;20036;-79
2021/05/13 09:48:48;;;;;;;2.72;1.10;;;20.10;41.30;;;;;;6103442;29;20044;-79
2021/05/13 09:51:49;;;;;;;1.15;0.50;;;20.20;41.10;;;;;;6107330;29;20032;-80
2021/05/13 09:55:13;;;;;;;1.60;0.35;;;20.40;40.80;;;;;;6108296;29;20518;-79
2021/05/13 09:58:14;;;;;;;2.17;0.38;;;20.60;40.30;;;;;;6103761;29;20047;-80
2021/05/13 10:01:16;;;;;;;1.10;0.38;;;20.70;39.80;;;;;;6088439;29;20040;-79
2021/05/13 10:04:18;;;;;;;0.95;0.45;;;20.80;39.50;;;;;;6106928;29;20027;-79
2021/05/13 10:07:19;;;;;;;0.22;0.20;;;20.80;39.20;;;;;;6107681;29;20511;-79
2021/05/13 10:10:20;;;;;;;0.40;0.20;;;20.80;38.70;;;;;;6107847;29;20038;-79
2021/05/13 10:13:27;;;;;;;6.10;0.43;;;20.80;38.30;;;;;;6107573;29;20123;-79
2021/05/13 10:16:29;;;;;;;0.45;0.25;;;20.80;38.20;;;;;;6107842;29;20274;-79
2021/05/13 10:19:48;;;;;;;0.93;0.50;;;20.90;38.10;;;;;;6089488;29;20423;-79
2021/05/13 10:22:49;;;;;;;7.35;0.77;;;21.00;37.80;;;;;;6091355;29;20044;-77
2021/05/13 10:25:50;;;;;;;2.05;0.70;;;21.10;37.20;;;;;;6106528;29;20032;-79
2021/05/13 10:28:51;;;;;;;0.10;0.10;;;21.10;36.70;;;;;;6106010;29;20112;-81
2021/05/13 10:32:17;;;;;;;0.70;0.28;;;21.20;36.30;;;;;;6102911;29;20024;-78
2021/05/13 10:35:23;;;;;;;1.08;0.52;;;21.40;36.40;;;;;;6100409;29;20048;-76
2021/05/13 10:38:41;;;;;;;0.50;0.20;;;21.60;35.60;;;;;;6106813;29;20062;-79
2021/05/13 10:41:44;;;;;;;0.85;0.30;;;21.70;35.20;;;;;;6115494;29;20084;-76
2021/05/13 10:44:45;;;;;;;0.70;0.40;;;21.90;35.10;;;;;;6083089;29;20467;-78
2021/05/13 10:48:10;;;;;;;0.20;0.20;;;22.20;34.80;;;;;;6078399;29;20024;-79
2021/05/13 10:51:25;;;;;;;16.80;6.25;;;22.60;34.60;;;;;;6088274;29;20127;-78
2021/05/13 10:54:32;;;;;;;0.75;0.55;;;22.90;33.90;;;;;;6097427;29;20379;-81
2021/05/13 10:57:51;;;;;;;2.30;0.22;;;23.80;32.00;;;;;;6086910;29;20032;-77
2021/05/13 11:00:53;;;;;;;0.30;0.30;;;24.80;30.40;;;;;;6106317;29;20474;-76
2021/05/13 11:07:28;;;;;;;1.52;0.60;;;26.00;28.50;;;;;;6088967;29;20038;-75
2021/05/13 11:11:02;;;;;;;0.38;0.28;;;26.20;27.70;;;;;;6099945;29;20036;-79
2021/05/13 11:14:12;;;;;;;2.88;0.50;;;25.80;28.50;;;;;;6080997;29;20040;-78
2021/05/13 11:17:13;;;;;;;0.60;0.30;;;26.10;28.20;;;;;;6084954;29;20048;-77
2021/05/13 11:20:30;;;;;;;0.25;0.22;;;26.80;27.60;;;;;;6079150;29;20428;-79
2021/05/13 11:23:32;;;;;;;2.35;0.30;;;27.50;26.70;;;;;;6066430;29;20048;-79
2021/05/13 11:26:34;;;;;;;1.45;0.30;;;27.10;26.40;;;;;;6082739;29;20068;-79
2021/05/13 11:29:44;;;;;;;2.55;0.50;;;26.30;26.90;;;;;;6087276;29;20410;-79
2021/05/13 11:32:46;;;;;;;2.65;0.40;;;25.30;27.90;;;;;;6066080;29;20392;-79
2021/05/13 11:35:48;;;;;;;0.75;0.35;;;24.70;28.70;;;;;;6083147;29;20041;-78
2021/05/13 11:39:07;;;;;;;0.90;0.57;;;24.10;29.30;;;;;;6083162;29;20460;-79
2021/05/13 11:42:08;;;;;;;;;;;23.70;29.60;;;;;;6077411;29;20469;-77
2021/05/13 11:45:21;;;;;;;0.30;0.20;;;23.60;29.80;;;;;;6060673;29;19915;-79
2021/05/13 11:48:27;;;;;;;0.65;0.40;;;24.00;29.30;;;;;;6093138;29;20047;-79
2021/05/13 11:51:30;;;;;;;1.25;0.47;;;24.00;29.00;;;;;;6101471;29;20087;-79
2021/05/13 11:54:34;;;;;;;0.70;0.45;;;23.80;29.20;;;;;;6102640;29;20050;-79
2021/05/13 11:57:35;;;;;;;11.95;1.77;;;23.70;29.30;;;;;;6096729;29;20159;-78
2021/05/13 12:00:38;;;;;;;1.20;0.65;;;24.00;29.40;;;;;;6086897;29;20487;-79
2021/05/13 12:03:39;;;;;;;0.55;0.40;;;24.80;28.80;;;;;;6108102;29;20044;-80
2021/05/13 12:06:55;;;;;;;0.30;0.30;;;25.80;27.60;;;;;;6090508;29;20029;-79
2021/05/13 12:09:56;;;;;;;0.38;0.25;;;26.40;26.30;;;;;;6089184;29;20032;-78
2021/05/13 12:13:07;;;;;;;0.30;0.30;;;26.50;26.30;;;;;;6088760;29;20036;-78
2021/05/13 12:16:09;;;;;;;0.30;0.30;;;26.70;26.40;;;;;;6103782;29;20032;-79
2021/05/13 12:19:15;;;;;;;0.20;0.15;;;27.10;26.10;;;;;;6111720;29;20067;-79
2021/05/13 12:22:18;;;;;;;0.35;0.20;;;27.40;25.50;;;;;;6101502;29;20042;-78
2021/05/13 12:25:20;;;;;;;0.10;0.10;;;27.80;25.20;;;;;;6109771;29;20055;-79
2021/05/13 12:28:21;;;;;;;1.70;0.30;;;28.30;24.60;;;;;;6088594;29;20119;-79
2021/05/13 12:31:33;;;;;;;1.48;1.17;;;28.80;24.40;;;;;;6106105;29;20083;-78
2021/05/13 12:34:41;;;;;;;1.20;0.20;;;29.20;23.90;;;;;;6102055;29;20155;-78
2021/05/13 12:37:42;;;;;;;0.47;0.30;;;29.60;23.30;;;;;;6084554;29;20035;-78
2021/05/13 12:40:44;;;;;;;0.45;0.30;;;29.80;22.90;;;;;;6103296;29;20032;-80
2021/05/13 12:43:47;;;;;;;0.80;0.30;;;29.90;22.50;;;;;;6109397;29;20036;-80
2021/05/13 12:46:49;;;;;;;0.52;0.28;;;29.30;22.80;;;;;;6089676;29;20118;-81
2021/05/13 12:50:01;;;;;;;1.23;0.30;;;28.40;23.50;;;;;;6109241;29;20042;-82
2021/05/13 12:53:19;;;;;;;0.98;0.25;;;28.40;23.40;;;;;;6115042;29;20129;-78
2021/05/13 12:56:29;;;;;;;11.68;4.68;;;29.00;23.00;;;;;;6102009;29;20028;-78
2021/05/13 12:59:30;;;;;;;0.55;0.35;;;29.10;22.70;;;;;;6117893;29;20107;-77
2021/05/13 13:02:33;;;;;;;0.10;0.10;;;28.50;23.00;;;;;;6095852;29;20032;-77
2021/05/13 13:05:35;;;;;;;2.17;0.20;;;28.00;23.30;;;;;;6098420;29;20051;-77
2021/05/13 13:08:38;;;;;;;0.20;0.20;;;27.80;23.40;;;;;;6105190;29;20054;-78
2021/05/13 13:11:40;;;;;;;0.63;0.20;;;28.70;22.80;;;;;;6116981;29;20043;-78
2021/05/13 13:14:47;;;;;;;0.20;0.20;;;30.10;21.90;;;;;;6097113;29;20032;-78
2021/05/13 13:18:20;;;;;;;0.17;0.13;;;31.60;20.80;;;;;;6104729;29;20370;-77
2021/05/13 13:21:21;;;;;;;0.35;0.30;;;33.00;19.80;;;;;;6107394;29;20063;-78
2021/05/13 13:24:22;;;;;;;0.45;0.10;;;34.40;18.70;;;;;;6078907;29;20374;-77
2021/05/13 13:27:25;;;;;;;0.22;0.10;;;35.30;17.50;;;;;;6096545;29;20035;-76
2021/05/13 13:30:26;;;;;;;0.20;0.20;;;36.20;17.10;;;;;;6092824;29;20044;-77
2021/05/13 13:33:28;;;;;;;0.10;0.10;;;36.70;17.30;;;;;;6118125;29;20107;-76
2021/05/13 13:36:30;;;;;;;2.00;0.10;;;37.50;16.20;;;;;;6096239;29;20069;-78
2021/05/13 13:39:31;;;;;;;0.30;0.20;;;37.30;16.00;;;;;;6093182;29;20028;-78
2021/05/13 13:42:33;;;;;;;0.10;0.10;;;37.70;15.60;;;;;;6107773;29;20039;-78
2021/05/13 13:45:35;;;;;;;0.70;0.43;;;37.90;15.20;;;;;;6106781;29;20087;-77
2021/05/13 13:48:38;;;;;;;0.57;0.30;;;38.30;15.30;;;;;;6108279;29;20020;-77
2021/05/13 13:51:40;;;;;;;1.45;0.10;;;38.90;14.90;;;;;;6094459;29;20460;-78
2021/05/13 13:54:42;;;;;;;1.35;0.20;;;39.10;14.50;;;;;;6105391;29;20384;-83
2021/05/13 13:57:43;;;;;;;0.10;0.10;;;39.30;14.60;;;;;;6103881;29;20055;-78
2021/05/13 14:00:45;;;;;;;0.10;0.10;;;39.70;14.10;;;;;;6105071;29;20429;-78
2021/05/13 14:03:47;;;;;;;0.65;0.20;;;40.00;13.80;;;;;;6110821;29;20040;-79
2021/05/13 14:06:48;;;;;;;0.20;0.20;;;40.10;13.80;;;;;;6104123;29;20050;-78
2021/05/13 14:09:49;;;;;;;0.17;0.08;;;40.00;13.60;;;;;;6104188;29;20048;-78
2021/05/13 14:12:50;;;;;;;0.35;0.10;;;40.10;13.60;;;;;;6088352;29;20151;-84
2021/05/13 14:15:54;;;;;;;0.05;0.05;;;39.80;13.50;;;;;;6103014;29;20040;-77
2021/05/13 14:18:55;;;;;;;0.10;0.10;;;39.70;13.50;;;;;;6096787;29;20079;-76
2021/05/13 14:21:59;;;;;;;0.65;0.25;;;39.60;13.50;;;;;;6104716;29;20138;-76
2021/05/13 14:25:00;;;;;;;1.17;0.20;;;39.50;13.30;;;;;;6105723;29;20044;-76
2021/05/13 14:28:01;;;;;;;0.20;0.20;;;39.20;13.30;;;;;;6088224;29;20047;-76
2021/05/13 14:31:02;;;;;;;0.30;0.20;;;39.20;13.40;;;;;;6110587;29;20028;-76
2021/05/13 14:34:04;;;;;;;0.10;0.10;;;39.50;13.50;;;;;;6099160;29;20044;-75
2021/05/13 14:37:05;;;;;;;0.20;0.20;;;40.00;13.30;;;;;;6097623;29;20102;-76
2021/05/13 14:40:07;;;;;;;0.38;0.20;;;40.20;12.90;;;;;;6098312;29;20050;-75
2021/05/13 14:43:09;;;;;;;0.32;0.20;;;40.00;12.90;;;;;;6098838;29;20103;-76
2021/05/13 14:46:10;;;;;;;0.32;0.20;;;39.80;12.90;;;;;;6110782;29;20059;-75
2021/05/13 14:49:23;;;;;;;0.20;0.20;;;39.30;13.00;;;;;;6088663;29;20024;-77
2021/05/13 14:52:25;;;;;;;0.70;0.20;;;37.80;13.80;;;;;;6097001;29;20363;-77
2021/05/13 14:55:26;;;;;;;0.35;0.17;;;35.90;14.90;;;;;;6113297;29;20036;-78
2021/05/13 14:58:28;;;;;;;0.32;0.10;;;34.10;15.40;;;;;;6097380;29;20054;-77
2021/05/13 15:01:31;;;;;;;0.95;0.20;;;32.40;16.20;;;;;;6082278;29;20047;-77
2021/05/13 15:04:33;;;;;;;0.40;0.35;;;31.10;17.30;;;;;;6112860;29;20032;-77
2021/05/13 15:07:34;;;;;;;0.30;0.30;;;29.90;18.20;;;;;;6080677;29;20036;-77
2021/05/13 15:10:35;;;;;;;0.28;0.20;;;28.90;18.90;;;;;;6099347;29;20131;-78
2021/05/13 15:13:36;;;;;;;1.05;0.10;;;28.10;19.50;;;;;;6079532;29;20067;-78
2021/05/13 15:16:38;;;;;;;0.38;0.25;;;27.50;20.00;;;;;;6080691;29;20050;-77
2021/05/13 15:19:39;;;;;;;0.63;0.30;;;27.40;20.40;;;;;;6107671;29;20043;-77
2021/05/13 15:22:41;;;;;;;1.40;0.13;;;28.70;19.80;;;;;;6077320;29;20501;-79
2021/05/13 15:25:42;;;;;;;0.40;0.30;;;30.50;18.60;;;;;;6099525;29;20130;-81
2021/05/13 15:28:43;;;;;;;0.40;0.20;;;32.10;17.40;;;;;;6117413;29;20039;-79
2021/05/13 15:31:44;;;;;;;0.38;0.20;;;33.50;16.50;;;;;;6082242;29;20043;-77
2021/05/13 15:34:45;;;;;;;0.25;0.10;;;34.50;15.70;;;;;;6099720;29;20067;-78
2021/05/13 15:37:46;;;;;;;0.25;0.20;;;35.30;15.40;;;;;;6096138;29;20055;-77
2021/05/13 15:40:48;;;;;;;0.15;0.10;;;36.00;15.00;;;;;;6102409;29;20094;-78
2021/05/13 15:43:49;;;;;;;0.55;0.10;;;36.60;14.70;;;;;;6110571;29;20040;-76
2021/05/13 15:46:50;;;;;;;0.68;0.38;;;37.10;14.30;;;;;;6109829;29;20050;-77
2021/05/13 15:49:52;;;;;;;0.20;0.17;;;37.50;14.30;;;;;;6111411;29;20436;-77
2021/05/13 15:52:54;;;;;;;0.20;0.20;;;38.00;14.20;;;;;;6095587;29;20424;-77
2021/05/13 15:55:56;;;;;;;0.20;0.20;;;38.20;13.80;;;;;;6114381;29;20047;-76
2021/05/13 15:58:58;;;;;;;0.55;0.32;;;38.20;13.80;;;;;;6083060;29;20051;-75
2021/05/13 16:02:00;;;;;;;0.40;0.28;;;38.50;13.90;;;;;;6116704;29;20119;-75
2021/05/13 16:05:01;;;;;;;2.63;0.50;;;38.70;13.60;;;;;;6116059;29;20476;-75
2021/05/13 16:08:04;;;;;;;0.30;0.30;;;38.60;13.40;;;;;;6117712;29;20036;-77
2021/05/13 16:11:10;;;;;;;0.13;0.10;;;38.60;13.40;;;;;;6108929;29;20032;-76